CYMX/YMX METAR and TAF weather

Enter ICAO airport designator
Station Type Date Time Source
CYMX METAR 2019/10/21 05:00 UTC NOAA

CYMX 210500Z 00000KT 25SM FEW160 03/02 A3003 RMK AC1 SLP175


Station Type Date Time Source
CYMX Decoded METAR 2019/10/21 05:00 UTC NOAA

Montreal / Mirabel, Canada (CYMX) 45-41N 074-02W
Oct 21, 2019 - 01:00 AM EDT / 2019.10.21 0500 UTC
Wind: Calm:0
Visibility: 25 mile(s):0
Sky conditions: mostly clear
Temperature: 37 F (3 C)
Dew Point: 35 F (2 C)
Relative Humidity: 93%
Pressure (altimeter): 30.03 in. Hg (1016 hPa)
ob: CYMX 210500Z 00000KT 25SM FEW160 03/02 A3003 RMK AC1 SLP175
cycle: 5

Station Type Date Time Source
CYMX TAF 2019/10/21 06:45 UTC NOAA

TAF TAF CYMX 210541Z 2106/2206 VRB03KT P6SM FEW160 PROB30 2106/2115 1/2SM FG
FM211500 12005KT P6SM FEW030
BECMG 2123/2201 04005KT
FM220300 05008KT P6SM FEW005 BKN200
RMK NXT FCST BY 211200Z

Example: see airport list